sensor_id;sensor_type;location;lat;lon;timestamp;pressure;altitude;pressure_sealevel;temperature;humidity
76653;BME280;65563;45.970;12.680;2023-03-14T00:00:37;100795.09;;;11.26;74.74
76653;BME280;65563;45.970;12.680;2023-03-14T00:01:37;100802.03;;;11.27;74.78
76653;BME280;65563;45.970;12.680;2023-03-14T00:02:37;100791.63;;;11.25;75.04
76653;BME280;65563;45.970;12.680;2023-03-14T00:03:38;100798.56;;;11.26;74.96
76653;BME280;65563;45.970;12.680;2023-03-14T00:04:38;100791.19;;;11.21;75.18
76653;BME280;65563;45.970;12.680;2023-03-14T00:05:38;100797.06;;;11.17;75.66
76653;BME280;65563;45.970;12.680;2023-03-14T00:06:38;100796.63;;;11.13;76.08
76653;BME280;65563;45.970;12.680;2023-03-14T00:07:39;100792.59;;;11.17;75.77
76653;BME280;65563;45.970;12.680;2023-03-14T00:08:40;100792.38;;;11.19;75.71
76653;BME280;65563;45.970;12.680;2023-03-14T00:09:40;100784.41;;;11.19;75.89
76653;BME280;65563;45.970;12.680;2023-03-14T00:10:40;100786.44;;;11.17;76.03
76653;BME280;65563;45.970;12.680;2023-03-14T00:11:40;100783.59;;;11.18;76.48
76653;BME280;65563;45.970;12.680;2023-03-14T00:12:41;100790.53;;;11.19;76.56
76653;BME280;65563;45.970;12.680;2023-03-14T00:13:42;100779.53;;;11.22;76.63
76653;BME280;65563;45.970;12.680;2023-03-14T00:14:42;100783.84;;;11.23;76.59
76653;BME280;65563;45.970;12.680;2023-03-14T00:15:42;100781.19;;;11.23;76.78
76653;BME280;65563;45.970;12.680;2023-03-14T00:16:45;100782.81;;;11.25;76.93
76653;BME280;65563;45.970;12.680;2023-03-14T00:17:45;100778.28;;;11.18;77.23
76653;BME280;65563;45.970;12.680;2023-03-14T00:18:45;100776.63;;;11.17;77.17
76653;BME280;65563;45.970;12.680;2023-03-14T00:19:46;100781.38;;;11.22;77.27
76653;BME280;65563;45.970;12.680;2023-03-14T00:20:46;100781.81;;;11.26;77.19
76653;BME280;65563;45.970;12.680;2023-03-14T00:21:46;100778.31;;;11.25;77.50
76653;BME280;65563;45.970;12.680;2023-03-14T00:22:46;100775.47;;;11.27;77.46
76653;BME280;65563;45.970;12.680;2023-03-14T00:23:47;100766.28;;;11.29;77.51
76653;BME280;65563;45.970;12.680;2023-03-14T00:24:47;100771.16;;;11.26;77.52
76653;BME280;65563;45.970;12.680;2023-03-14T00:25:47;100768.72;;;11.24;77.66
76653;BME280;65563;45.970;12.680;2023-03-14T00:26:47;100770.56;;;11.23;77.71
76653;BME280;65563;45.970;12.680;2023-03-14T00:27:49;100759.06;;;11.23;77.88
76653;BME280;65563;45.970;12.680;2023-03-14T00:28:53;100757.66;;;11.20;77.83
76653;BME280;65563;45.970;12.680;2023-03-14T00:29:53;100750.44;;;11.14;78.48
76653;BME280;65563;45.970;12.680;2023-03-14T00:30:54;100750.66;;;11.19;78.68
76653;BME280;65563;45.970;12.680;2023-03-14T00:31:54;100743.47;;;11.13;78.90
76653;BME280;65563;45.970;12.680;2023-03-14T00:32:54;100755.09;;;11.12;78.84
76653;BME280;65563;45.970;12.680;2023-03-14T00:33:54;100736.28;;;11.07;79.34
76653;BME280;65563;45.970;12.680;2023-03-14T00:34:54;100738.78;;;11.15;79.07
76653;BME280;65563;45.970;12.680;2023-03-14T00:35:59;100743.84;;;11.10;79.27
76653;BME280;65563;45.970;12.680;2023-03-14T00:36:59;100744.88;;;11.09;79.53
76653;BME280;65563;45.970;12.680;2023-03-14T00:37:59;100748.59;;;11.15;79.64
76653;BME280;65563;45.970;12.680;2023-03-14T00:39:00;100752.44;;;11.12;79.71
76653;BME280;65563;45.970;12.680;2023-03-14T00:40:00;100752.94;;;11.22;79.29
76653;BME280;65563;45.970;12.680;2023-03-14T00:41:04;100754.59;;;11.23;79.44
76653;BME280;65563;45.970;12.680;2023-03-14T00:42:04;100751.75;;;11.25;79.39
76653;BME280;65563;45.970;12.680;2023-03-14T00:43:04;100744.72;;;11.17;79.51
76653;BME280;65563;45.970;12.680;2023-03-14T00:44:04;100737.38;;;11.19;79.14
76653;BME280;65563;45.970;12.680;2023-03-14T00:45:04;100733.13;;;11.25;79.27
76653;BME280;65563;45.970;12.680;2023-03-14T00:46:05;100728.97;;;11.16;79.50
76653;BME280;65563;45.970;12.680;2023-03-14T00:47:05;100711.97;;;11.10;79.67
76653;BME280;65563;45.970;12.680;2023-03-14T00:48:05;100709.63;;;11.01;80.08
76653;BME280;65563;45.970;12.680;2023-03-14T00:49:06;100709.63;;;11.01;80.40
76653;BME280;65563;45.970;12.680;2023-03-14T00:50:06;100698.03;;;11.08;80.58
76653;BME280;65563;45.970;12.680;2023-03-14T00:51:07;100692.50;;;11.03;80.19
76653;BME280;65563;45.970;12.680;2023-03-14T00:52:08;100697.94;;;10.95;80.81
76653;BME280;65563;45.970;12.680;2023-03-14T00:53:08;100699.22;;;10.99;80.98
76653;BME280;65563;45.970;12.680;2023-03-14T00:54:08;100705.34;;;10.99;80.58
76653;BME280;65563;45.970;12.680;2023-03-14T00:55:08;100715.38;;;11.04;80.75
76653;BME280;65563;45.970;12.680;2023-03-14T00:56:09;100705.19;;;11.08;80.58
76653;BME280;65563;45.970;12.680;2023-03-14T00:57:10;100703.72;;;11.05;80.75
76653;BME280;65563;45.970;12.680;2023-03-14T00:58:11;100715.22;;;11.06;80.90
76653;BME280;65563;45.970;12.680;2023-03-14T00:59:12;100717.47;;;11.09;80.73
76653;BME280;65563;45.970;12.680;2023-03-14T01:00:12;100713.59;;;11.11;80.73
76653;BME280;65563;45.970;12.680;2023-03-14T01:01:14;100715.06;;;11.14;80.75
76653;BME280;65563;45.970;12.680;2023-03-14T01:02:14;100712.72;;;11.04;80.77
76653;BME280;65563;45.970;12.680;2023-03-14T01:03:14;100709.69;;;11.07;80.94
76653;BME280;65563;45.970;12.680;2023-03-14T01:04:14;100706.38;;;11.05;81.08
76653;BME280;65563;45.970;12.680;2023-03-14T01:05:15;100706.44;;;11.12;81.03
76653;BME280;65563;45.970;12.680;2023-03-14T01:06:16;100707.75;;;11.22;80.64
76653;BME280;65563;45.970;12.680;2023-03-14T01:07:16;100710.78;;;11.19;80.47
76653;BME280;65563;45.970;12.680;2023-03-14T01:08:17;100711.19;;;11.16;80.61
76653;BME280;65563;45.970;12.680;2023-03-14T01:09:17;100712.03;;;11.17;80.65
76653;BME280;65563;45.970;12.680;2023-03-14T01:10:17;100703.41;;;11.15;80.52
76653;BME280;65563;45.970;12.680;2023-03-14T01:11:19;100700.56;;;11.16;80.63
76653;BME280;65563;45.970;12.680;2023-03-14T01:12:19;100698.91;;;11.15;80.89
76653;BME280;65563;45.970;12.680;2023-03-14T01:13:19;100697.50;;;11.19;80.46
76653;BME280;65563;45.970;12.680;2023-03-14T01:14:19;100696.50;;;11.20;80.44
76653;BME280;65563;45.970;12.680;2023-03-14T01:15:20;100695.47;;;11.21;80.64
76653;BME280;65563;45.970;12.680;2023-03-14T01:16:20;100693.19;;;11.18;80.39
76653;BME280;65563;45.970;12.680;2023-03-14T01:17:21;100695.81;;;11.12;80.67
76653;BME280;65563;45.970;12.680;2023-03-14T01:18:22;100698.84;;;11.02;81.02
76653;BME280;65563;45.970;12.680;2023-03-14T01:19:22;100700.91;;;11.07;81.06
76653;BME280;65563;45.970;12.680;2023-03-14T01:20:22;100703.34;;;11.08;81.09
76653;BME280;65563;45.970;12.680;2023-03-14T01:21:23;100700.69;;;11.08;81.27
76653;BME280;65563;45.970;12.680;2023-03-14T01:22:24;100690.06;;;11.08;81.07
76653;BME280;65563;45.970;12.680;2023-03-14T01:23:24;100689.88;;;11.10;81.18
76653;BME280;65563;45.970;12.680;2023-03-14T01:24:24;100688.66;;;11.12;80.93
76653;BME280;65563;45.970;12.680;2023-03-14T01:25:24;100682.78;;;11.17;80.82
76653;BME280;65563;45.970;12.680;2023-03-14T01:26:25;100674.72;;;11.04;81.23
76653;BME280;65563;45.970;12.680;2023-03-14T01:27:26;100679.19;;;11.03;81.25
76653;BME280;65563;45.970;12.680;2023-03-14T01:28:26;100676.28;;;10.98;81.56
76653;BME280;65563;45.970;12.680;2023-03-14T01:29:26;100679.59;;;11.00;81.59
76653;BME280;65563;45.970;12.680;2023-03-14T01:30:26;100668.69;;;10.95;81.80
76653;BME280;65563;45.970;12.680;2023-03-14T01:31:27;100674.00;;;10.95;81.67
76653;BME280;65563;45.970;12.680;2023-03-14T01:32:27;100667.28;;;10.92;81.97
76653;BME280;65563;45.970;12.680;2023-03-14T01:33:27;100670.91;;;10.91;81.91
76653;BME280;65563;45.970;12.680;2023-03-14T01:34:27;100666.69;;;10.97;81.67
76653;BME280;65563;45.970;12.680;2023-03-14T01:35:28;100664.22;;;10.95;81.86
76653;BME280;65563;45.970;12.680;2023-03-14T01:36:28;100663.38;;;10.95;81.89
76653;BME280;65563;45.970;12.680;2023-03-14T01:37:28;100653.41;;;10.97;81.92
76653;BME280;65563;45.970;12.680;2023-03-14T01:38:29;100652.63;;;11.03;81.62
76653;BME280;65563;45.970;12.680;2023-03-14T01:39:29;100655.50;;;11.08;81.31
76653;BME280;65563;45.970;12.680;2023-03-14T01:40:29;100661.84;;;11.07;81.52
76653;BME280;65563;45.970;12.680;2023-03-14T01:41:30;100654.66;;;11.01;81.47
76653;BME280;65563;45.970;12.680;2023-03-14T01:42:30;100662.50;;;11.09;81.11
76653;BME280;65563;45.970;12.680;2023-03-14T01:43:30;100652.72;;;11.16;81.14
76653;BME280;65563;45.970;12.680;2023-03-14T01:44:49;100650.50;;;11.20;80.97
76653;BME280;65563;45.970;12.680;2023-03-14T01:47:06;100633.91;;;11.18;80.82
76653;BME280;65563;45.970;12.680;2023-03-14T01:48:06;100623.50;;;11.23;80.77
76653;BME280;65563;45.970;12.680;2023-03-14T01:50:07;100615.47;;;11.10;80.87
76653;BME280;65563;45.970;12.680;2023-03-14T01:51:10;100621.16;;;11.07;81.58
76653;BME280;65563;45.970;12.680;2023-03-14T01:52:13;100605.59;;;11.04;81.30
76653;BME280;65563;45.970;12.680;2023-03-14T01:53:14;100606.03;;;11.07;81.60
76653;BME280;65563;45.970;12.680;2023-03-14T01:54:16;100602.19;;;11.10;81.36
76653;BME280;65563;45.970;12.680;2023-03-14T01:55:18;100589.72;;;11.10;81.17
76653;BME280;65563;45.970;12.680;2023-03-14T01:56:21;100578.00;;;11.05;81.42
76653;BME280;65563;45.970;12.680;2023-03-14T01:57:37;100571.50;;;11.07;81.54
76653;BME280;65563;45.970;12.680;2023-03-14T01:58:39;100566.56;;;11.04;81.54
76653;BME280;65563;45.970;12.680;2023-03-14T01:59:43;100563.50;;;11.07;81.63
76653;BME280;65563;45.970;12.680;2023-03-14T02:00:46;100569.69;;;11.14;81.52
76653;BME280;65563;45.970;12.680;2023-03-14T02:01:46;100579.91;;;11.11;81.27
76653;BME280;65563;45.970;12.680;2023-03-14T02:02:48;100565.78;;;11.10;80.89
76653;BME280;65563;45.970;12.680;2023-03-14T02:03:55;100565.44;;;11.20;80.89
76653;BME280;65563;45.970;12.680;2023-03-14T02:04:56;100554.34;;;11.10;80.97
76653;BME280;65563;45.970;12.680;2023-03-14T02:05:57;100546.16;;;11.11;81.47
76653;BME280;65563;45.970;12.680;2023-03-14T02:07:01;100544.09;;;11.07;81.37
76653;BME280;65563;45.970;12.680;2023-03-14T02:08:05;100536.16;;;11.13;81.31
76653;BME280;65563;45.970;12.680;2023-03-14T02:09:06;100545.31;;;11.04;81.56
76653;BME280;65563;45.970;12.680;2023-03-14T02:10:07;100538.19;;;11.11;81.42
76653;BME280;65563;45.970;12.680;2023-03-14T02:11:07;100538.81;;;11.13;81.28
76653;BME280;65563;45.970;12.680;2023-03-14T02:12:08;100542.69;;;11.11;81.35
76653;BME280;65563;45.970;12.680;2023-03-14T02:13:09;100534.25;;;11.01;81.61
76653;BME280;65563;45.970;12.680;2023-03-14T02:14:13;100536.09;;;11.00;81.76
76653;BME280;65563;45.970;12.680;2023-03-14T02:15:14;100524.66;;;10.99;81.81
76653;BME280;65563;45.970;12.680;2023-03-14T02:16:14;100523.81;;;10.99;81.94
76653;BME280;65563;45.970;12.680;2023-03-14T02:17:15;100523.81;;;10.99;81.88
76653;BME280;65563;45.970;12.680;2023-03-14T02:18:16;100522.13;;;10.91;82.23
76653;BME280;65563;45.970;12.680;2023-03-14T02:19:17;100525.63;;;10.98;82.05
76653;BME280;65563;45.970;12.680;2023-03-14T02:22:24;100533.44;;;11.00;82.09
76653;BME280;65563;45.970;12.680;2023-03-14T02:23:32;100521.16;;;10.99;81.93
76653;BME280;65563;45.970;12.680;2023-03-14T02:25:44;100518.47;;;10.92;82.25
76653;BME280;65563;45.970;12.680;2023-03-14T02:28:04;100542.56;;;10.91;82.26
76653;BME280;65563;45.970;12.680;2023-03-14T02:29:05;100539.47;;;10.87;82.26
76653;BME280;65563;45.970;12.680;2023-03-14T02:30:12;100537.19;;;10.78;82.29
76653;BME280;65563;45.970;12.680;2023-03-14T02:31:14;100534.72;;;10.76;82.36
76653;BME280;65563;45.970;12.680;2023-03-14T02:32:14;100535.75;;;10.75;82.57
76653;BME280;65563;45.970;12.680;2023-03-14T02:33:17;100535.16;;;10.80;82.20
76653;BME280;65563;45.970;12.680;2023-03-14T02:34:18;100537.59;;;10.74;82.21
76653;BME280;65563;45.970;12.680;2023-03-14T02:35:19;100536.59;;;10.82;82.19
76653;BME280;65563;45.970;12.680;2023-03-14T02:36:20;100537.03;;;10.86;81.90
76653;BME280;65563;45.970;12.680;2023-03-14T02:37:21;100539.06;;;10.84;81.61
76653;BME280;65563;45.970;12.680;2023-03-14T02:38:44;100541.66;;;10.77;81.26
76653;BME280;65563;45.970;12.680;2023-03-14T02:39:46;100540.41;;;10.73;81.24
76653;BME280;65563;45.970;12.680;2023-03-14T02:40:47;100537.81;;;10.80;81.10
76653;BME280;65563;45.970;12.680;2023-03-14T02:41:47;100543.13;;;10.80;80.87
76653;BME280;65563;45.970;12.680;2023-03-14T02:42:47;100544.91;;;10.72;80.14
76653;BME280;65563;45.970;12.680;2023-03-14T02:43:47;100536.09;;;10.65;79.65
76653;BME280;65563;45.970;12.680;2023-03-14T02:44:55;100536.28;;;10.64;79.19
76653;BME280;65563;45.970;12.680;2023-03-14T02:45:59;100532.19;;;10.61;79.19
76653;BME280;65563;45.970;12.680;2023-03-14T02:47:00;100534.13;;;10.74;78.52
76653;BME280;65563;45.970;12.680;2023-03-14T02:48:02;100544.53;;;10.75;78.12
76653;BME280;65563;45.970;12.680;2023-03-14T02:49:05;100538.78;;;10.72;78.56
76653;BME280;65563;45.970;12.680;2023-03-14T02:50:11;100531.59;;;10.66;78.14
76653;BME280;65563;45.970;12.680;2023-03-14T02:51:12;100529.31;;;10.63;78.33
76653;BME280;65563;45.970;12.680;2023-03-14T02:52:13;100526.91;;;10.68;78.20
76653;BME280;65563;45.970;12.680;2023-03-14T02:53:16;100531.84;;;10.71;77.70
76653;BME280;65563;45.970;12.680;2023-03-14T02:54:16;100531.69;;;10.79;77.02
76653;BME280;65563;45.970;12.680;2023-03-14T02:55:20;100538.84;;;10.79;77.04
76653;BME280;65563;45.970;12.680;2023-03-14T02:56:20;100536.78;;;10.81;76.85
76653;BME280;65563;45.970;12.680;2023-03-14T02:57:21;100535.16;;;10.80;76.67
76653;BME280;65563;45.970;12.680;2023-03-14T02:58:21;100527.81;;;10.82;75.96
76653;BME280;65563;45.970;12.680;2023-03-14T02:59:21;100523.75;;;10.86;75.87
76653;BME280;65563;45.970;12.680;2023-03-14T03:00:21;100524.56;;;10.86;76.36
76653;BME280;65563;45.970;12.680;2023-03-14T03:01:22;100525.38;;;10.87;74.98
76653;BME280;65563;45.970;12.680;2023-03-14T03:02:22;100522.28;;;10.83;75.14
76653;BME280;65563;45.970;12.680;2023-03-14T03:03:22;100514.28;;;10.77;74.63
76653;BME280;65563;45.970;12.680;2023-03-14T03:04:22;100517.34;;;10.73;74.66
76653;BME280;65563;45.970;12.680;2023-03-14T03:05:22;100522.91;;;10.79;74.52
76653;BME280;65563;45.970;12.680;2023-03-14T03:06:23;100528.81;;;10.81;74.31
76653;BME280;65563;45.970;12.680;2023-03-14T03:07:23;100537.22;;;10.84;74.13
76653;BME280;65563;45.970;12.680;2023-03-14T03:08:24;100536.19;;;10.79;73.95
76653;BME280;65563;45.970;12.680;2023-03-14T03:09:24;100535.16;;;10.80;74.40
76653;BME280;65563;45.970;12.680;2023-03-14T03:10:24;100524.53;;;10.80;74.07
76653;BME280;65563;45.970;12.680;2023-03-14T03:11:25;100526.16;;;10.74;73.95
76653;BME280;65563;45.970;12.680;2023-03-14T03:12:25;100518.78;;;10.76;74.17
76653;BME280;65563;45.970;12.680;2023-03-14T03:13:25;100517.59;;;10.79;74.17
76653;BME280;65563;45.970;12.680;2023-03-14T03:14:25;100515.09;;;10.77;73.66
76653;BME280;65563;45.970;12.680;2023-03-14T03:15:26;100506.31;;;10.77;74.04
76653;BME280;65563;45.970;12.680;2023-03-14T03:16:26;100500.81;;;10.78;73.75
76653;BME280;65563;45.970;12.680;2023-03-14T03:17:26;100492.59;;;10.73;74.05
76653;BME280;65563;45.970;12.680;2023-03-14T03:18:26;100495.47;;;10.71;74.06
76653;BME280;65563;45.970;12.680;2023-03-14T03:19:26;100495.22;;;10.66;74.38
76653;BME280;65563;45.970;12.680;2023-03-14T03:20:26;100496.63;;;10.62;74.30
76653;BME280;65563;45.970;12.680;2023-03-14T03:21:27;100499.53;;;10.67;74.21
76653;BME280;65563;45.970;12.680;2023-03-14T03:22:27;100479.94;;;10.68;74.50
76653;BME280;65563;45.970;12.680;2023-03-14T03:23:27;100478.69;;;10.64;74.61
76653;BME280;65563;45.970;12.680;2023-03-14T03:24:27;100473.84;;;10.74;74.53
76653;BME280;65563;45.970;12.680;2023-03-14T03:25:27;100473.41;;;10.71;74.26
76653;BME280;65563;45.970;12.680;2023-03-14T03:26:28;100470.59;;;10.79;74.16
76653;BME280;65563;45.970;12.680;2023-03-14T03:27:29;100472.59;;;10.77;73.99
76653;BME280;65563;45.970;12.680;2023-03-14T03:28:30;100477.50;;;10.73;74.25
76653;BME280;65563;45.970;12.680;2023-03-14T03:29:30;100475.84;;;10.72;74.52
76653;BME280;65563;45.970;12.680;2023-03-14T03:30:30;100475.84;;;10.72;74.54
76653;BME280;65563;45.970;12.680;2023-03-14T03:31:30;100473.44;;;10.78;74.22
76653;BME280;65563;45.970;12.680;2023-03-14T03:32:30;100473.25;;;10.79;74.32
76653;BME280;65563;45.970;12.680;2023-03-14T03:33:31;100470.97;;;10.76;74.47
76653;BME280;65563;45.970;12.680;2023-03-14T03:34:31;100472.19;;;10.73;74.56
76653;BME280;65563;45.970;12.680;2023-03-14T03:35:31;100471.78;;;10.77;74.17
76653;BME280;65563;45.970;12.680;2023-03-14T03:36:31;100468.94;;;10.78;74.43
76653;BME280;65563;45.970;12.680;2023-03-14T03:37:32;100466.47;;;10.77;74.49
76653;BME280;65563;45.970;12.680;2023-03-14T03:38:33;100469.53;;;10.73;74.41
76653;BME280;65563;45.970;12.680;2023-03-14T03:39:33;100467.25;;;10.70;74.64
76653;BME280;65563;45.970;12.680;2023-03-14T03:40:33;100465.44;;;10.71;74.52
76653;BME280;65563;45.970;12.680;2023-03-14T03:41:33;100465.66;;;10.76;74.43
76653;BME280;65563;45.970;12.680;2023-03-14T03:42:34;100462.41;;;10.74;74.33
76653;BME280;65563;45.970;12.680;2023-03-14T03:43:34;100466.00;;;10.66;74.75
76653;BME280;65563;45.970;12.680;2023-03-14T03:44:35;100463.94;;;10.62;74.86
76653;BME280;65563;45.970;12.680;2023-03-14T03:45:35;100463.56;;;10.65;74.55
76653;BME280;65563;45.970;12.680;2023-03-14T03:46:35;100465.97;;;10.60;74.81
76653;BME280;65563;45.970;12.680;2023-03-14T03:47:35;100464.34;;;10.59;74.80
76653;BME280;65563;45.970;12.680;2023-03-14T03:48:35;100461.94;;;10.64;74.80
76653;BME280;65563;45.970;12.680;2023-03-14T03:49:36;100457.22;;;10.66;74.78
76653;BME280;65563;45.970;12.680;2023-03-14T03:50:36;100469.31;;;10.68;74.73
76653;BME280;65563;45.970;12.680;2023-03-14T03:51:36;100458.28;;;10.71;74.83
76653;BME280;65563;45.970;12.680;2023-03-14T03:52:36;100454.38;;;10.67;74.74
76653;BME280;65563;45.970;12.680;2023-03-14T03:53:36;100456.63;;;10.70;74.49
76653;BME280;65563;45.970;12.680;2023-03-14T03:54:37;100452.97;;;10.71;74.86
76653;BME280;65563;45.970;12.680;2023-03-14T03:55:37;100458.28;;;10.71;74.76
76653;BME280;65563;45.970;12.680;2023-03-14T03:56:37;100464.84;;;10.75;74.77
76653;BME280;65563;45.970;12.680;2023-03-14T03:57:37;100463.59;;;10.71;75.00
76653;BME280;65563;45.970;12.680;2023-03-14T03:58:37;100456.06;;;10.75;74.66
76653;BME280;65563;45.970;12.680;2023-03-14T03:59:38;100458.91;;;10.73;74.71
76653;BME280;65563;45.970;12.680;2023-03-14T04:00:38;100456.06;;;10.75;75.01
76653;BME280;65563;45.970;12.680;2023-03-14T04:01:38;100447.50;;;10.80;74.53
76653;BME280;65563;45.970;12.680;2023-03-14T04:02:38;100446.06;;;10.84;74.39
76653;BME280;65563;45.970;12.680;2023-03-14T04:03:38;100452.41;;;10.83;74.47
76653;BME280;65563;45.970;12.680;2023-03-14T04:04:39;100445.84;;;10.79;74.86
76653;BME280;65563;45.970;12.680;2023-03-14T04:05:39;100445.25;;;10.83;74.90
76653;BME280;65563;45.970;12.680;2023-03-14T04:06:39;100443.00;;;10.80;75.31
76653;BME280;65563;45.970;12.680;2023-03-14T04:07:39;100444.22;;;10.84;75.25
76653;BME280;65563;45.970;12.680;2023-03-14T04:08:40;100446.06;;;10.84;75.24
76653;BME280;65563;45.970;12.680;2023-03-14T04:09:40;100446.69;;;10.79;75.29
76653;BME280;65563;45.970;12.680;2023-03-14T04:10:40;100450.78;;;10.82;75.45
76653;BME280;65563;45.970;12.680;2023-03-14T04:11:40;100454.25;;;10.82;75.45
76653;BME280;65563;45.970;12.680;2023-03-14T04:12:40;100455.28;;;10.81;75.46
76653;BME280;65563;45.970;12.680;2023-03-14T04:13:41;100455.06;;;10.83;75.25
76653;BME280;65563;45.970;12.680;2023-03-14T04:14:41;100448.94;;;10.82;75.82
76653;BME280;65563;45.970;12.680;2023-03-14T04:15:41;100445.66;;;10.80;75.76
76653;BME280;65563;45.970;12.680;2023-03-14T04:16:41;100443.19;;;10.79;75.86
76653;BME280;65563;45.970;12.680;2023-03-14T04:17:41;100434.41;;;10.78;75.91
76653;BME280;65563;45.970;12.680;2023-03-14T04:18:41;100426.63;;;10.77;76.00
76653;BME280;65563;45.970;12.680;2023-03-14T04:19:42;100428.25;;;10.71;76.09
76653;BME280;65563;45.970;12.680;2023-03-14T04:20:42;100424.38;;;10.73;75.97
76653;BME280;65563;45.970;12.680;2023-03-14T04:21:42;100418.44;;;10.71;76.24
76653;BME280;65563;45.970;12.680;2023-03-14T04:22:42;100425.38;;;10.72;76.22
76653;BME280;65563;45.970;12.680;2023-03-14T04:23:42;100431.72;;;10.71;76.26
76653;BME280;65563;45.970;12.680;2023-03-14T04:24:43;100431.09;;;10.69;76.28
76653;BME280;65563;45.970;12.680;2023-03-14T04:25:43;100431.31;;;10.68;76.43
76653;BME280;65563;45.970;12.680;2023-03-14T04:26:43;100431.47;;;10.66;76.56
76653;BME280;65563;45.970;12.680;2023-03-14T04:27:43;100431.09;;;10.69;76.49
76653;BME280;65563;45.970;12.680;2023-03-14T04:28:43;100423.75;;;10.71;76.70
76653;BME280;65563;45.970;12.680;2023-03-14T04:29:44;100426.03;;;10.74;76.44
76653;BME280;65563;45.970;12.680;2023-03-14T04:30:44;100421.91;;;10.72;76.65
76653;BME280;65563;45.970;12.680;2023-03-14T04:31:44;100424.19;;;10.75;76.67
76653;BME280;65563;45.970;12.680;2023-03-14T04:32:44;100417.41;;;10.72;76.81
76653;BME280;65563;45.970;12.680;2023-03-14T04:33:44;100411.69;;;10.69;76.64
76653;BME280;65563;45.970;12.680;2023-03-14T04:34:45;100410.88;;;10.68;77.05
76653;BME280;65563;45.970;12.680;2023-03-14T04:35:45;100409.47;;;10.72;76.79
76653;BME280;65563;45.970;12.680;2023-03-14T04:36:45;100406.63;;;10.74;76.76
76653;BME280;65563;45.970;12.680;2023-03-14T04:37:45;100401.88;;;10.69;77.11
76653;BME280;65563;45.970;12.680;2023-03-14T04:38:46;100402.28;;;10.66;77.53
76653;BME280;65563;45.970;12.680;2023-03-14T04:39:46;100405.34;;;10.70;77.29
76653;BME280;65563;45.970;12.680;2023-03-14T04:40:46;100399.44;;;10.68;77.43
76653;BME280;65563;45.970;12.680;2023-03-14T04:41:46;100403.94;;;10.67;77.44
76653;BME280;65563;45.970;12.680;2023-03-14T04:42:46;100395.97;;;10.67;77.57
76653;BME280;65563;45.970;12.680;2023-03-14T04:43:46;100396.78;;;10.68;77.60
76653;BME280;65563;45.970;12.680;2023-03-14T04:44:46;100397.78;;;10.67;77.45
76653;BME280;65563;45.970;12.680;2023-03-14T04:45:47;100391.03;;;10.64;77.69
76653;BME280;65563;45.970;12.680;2023-03-14T04:46:47;100376.09;;;10.63;77.86
76653;BME280;65563;45.970;12.680;2023-03-14T04:47:47;100366.94;;;10.66;77.79
76653;BME280;65563;45.970;12.680;2023-03-14T04:48:47;100363.47;;;10.65;78.09
76653;BME280;65563;45.970;12.680;2023-03-14T04:49:47;100371.84;;;10.69;77.84
76653;BME280;65563;45.970;12.680;2023-03-14T04:50:47;100363.09;;;10.75;77.77
76653;BME280;65563;45.970;12.680;2023-03-14T04:51:48;100358.34;;;10.70;77.78
76653;BME280;65563;45.970;12.680;2023-03-14T04:52:48;100353.50;;;10.74;77.73
76653;BME280;65563;45.970;12.680;2023-03-14T04:53:48;100357.97;;;10.73;77.70
76653;BME280;65563;45.970;12.680;2023-03-14T04:54:48;100364.94;;;10.74;77.64
76653;BME280;65563;45.970;12.680;2023-03-14T04:55:52;100356.34;;;10.72;77.81
76653;BME280;65563;45.970;12.680;2023-03-14T04:56:53;100351.03;;;10.72;77.76
76653;BME280;65563;45.970;12.680;2023-03-14T04:57:53;100347.94;;;10.69;77.96
76653;BME280;65563;45.970;12.680;2023-03-14T04:58:53;100343.44;;;10.69;78.16
76653;BME280;65563;45.970;12.680;2023-03-14T04:59:53;100345.91;;;10.71;77.95
76653;BME280;65563;45.970;12.680;2023-03-14T05:00:53;100352.06;;;10.71;78.15
76653;BME280;65563;45.970;12.680;2023-03-14T05:01:54;100345.94;;;10.78;77.70
76653;BME280;65563;45.970;12.680;2023-03-14T05:02:54;100349.19;;;10.80;78.05
76653;BME280;65563;45.970;12.680;2023-03-14T05:03:54;100341.63;;;10.77;78.03
76653;BME280;65563;45.970;12.680;2023-03-14T05:04:54;100336.94;;;10.79;78.02
76653;BME280;65563;45.970;12.680;2023-03-14T05:05:54;100333.88;;;10.75;78.29
76653;BME280;65563;45.970;12.680;2023-03-14T05:06:55;100329.38;;;10.75;78.46
76653;BME280;65563;45.970;12.680;2023-03-14T05:07:55;100329.16;;;10.77;78.22
76653;BME280;65563;45.970;12.680;2023-03-14T05:08:55;100322.66;;;10.80;78.25
76653;BME280;65563;45.970;12.680;2023-03-14T05:09:55;100315.28;;;10.75;78.67
76653;BME280;65563;45.970;12.680;2023-03-14T05:10:56;100302.59;;;10.77;78.54
76653;BME280;65563;45.970;12.680;2023-03-14T05:11:56;100302.19;;;10.73;78.71
76653;BME280;65563;45.970;12.680;2023-03-14T05:12:56;100302.41;;;10.79;78.85
76653;BME280;65563;45.970;12.680;2023-03-14T05:13:56;100304.06;;;10.80;78.87
76653;BME280;65563;45.970;12.680;2023-03-14T05:14:56;100308.16;;;10.82;78.60
76653;BME280;65563;45.970;12.680;2023-03-14T05:16:04;100305.69;;;10.87;78.49
76653;BME280;65563;45.970;12.680;2023-03-14T05:17:04;100298.75;;;10.86;78.72
76653;BME280;65563;45.970;12.680;2023-03-14T05:18:04;100300.19;;;10.89;79.04
76653;BME280;65563;45.970;12.680;2023-03-14T05:19:04;100291.59;;;10.87;79.00
76653;BME280;65563;45.970;12.680;2023-03-14T05:20:04;100293.63;;;10.91;78.98
76653;BME280;65563;45.970;12.680;2023-03-14T05:21:05;100291.41;;;10.88;79.14